createdAt,value
2024-03-06T00:01:22.679Z,2.90
2024-03-06T00:03:49.181Z,2.73
2024-03-06T00:06:15.658Z,2.60
2024-03-06T00:08:42.193Z,3.30
2024-03-06T00:11:10.265Z,2.93
2024-03-06T00:13:36.871Z,2.90
2024-03-06T00:16:03.562Z,3.05
2024-03-06T00:18:30.064Z,2.63
2024-03-06T00:20:56.564Z,2.57
2024-03-06T00:23:23.117Z,2.63
2024-03-06T00:25:49.903Z,2.50
2024-03-06T00:28:17.801Z,2.17
2024-03-06T00:30:44.581Z,2.65
2024-03-06T00:33:11.313Z,2.40
2024-03-06T00:35:37.846Z,2.95
2024-03-06T00:38:04.799Z,3.37
2024-03-06T00:40:31.393Z,2.50
2024-03-06T00:42:57.945Z,3.10
2024-03-06T00:45:25.839Z,3.00
2024-03-06T00:47:52.334Z,2.80
2024-03-06T00:50:19.043Z,2.57
2024-03-06T00:52:45.975Z,2.97
2024-03-06T00:55:14.544Z,3.47
2024-03-06T00:57:41.475Z,2.90
2024-03-06T01:00:10.688Z,3.83
2024-03-06T01:02:38.662Z,2.70
2024-03-06T01:05:05.809Z,2.90
2024-03-06T01:07:32.420Z,2.97
2024-03-06T01:09:58.921Z,2.70
2024-03-06T01:12:25.681Z,3.22
2024-03-06T01:14:52.410Z,3.05
2024-03-06T01:17:18.978Z,3.13
2024-03-06T01:19:46.862Z,2.93
2024-03-06T01:22:16.127Z,3.10
2024-03-06T01:24:42.684Z,2.58
2024-03-06T01:27:09.502Z,2.93
2024-03-06T01:29:36.077Z,3.42
2024-03-06T01:32:03.061Z,2.63
2024-03-06T01:34:29.557Z,3.47
2024-03-06T01:36:57.485Z,4.35
2024-03-06T01:39:23.991Z,2.92
2024-03-06T01:41:51.907Z,2.97
2024-03-06T01:44:19.489Z,3.10
2024-03-06T01:46:46.681Z,3.78
2024-03-06T01:49:15.448Z,3.30
2024-03-06T01:51:50.902Z,3.30
2024-03-06T01:54:19.129Z,3.35
2024-03-06T01:56:46.858Z,3.13
2024-03-06T01:59:21.553Z,3.03
2024-03-06T02:01:55.884Z,3.70
2024-03-06T02:04:24.011Z,3.20
2024-03-06T02:06:52.370Z,3.53
2024-03-06T02:09:20.209Z,3.45
2024-03-06T02:11:46.914Z,3.50
2024-03-06T02:14:13.540Z,3.83
2024-03-06T02:16:40.094Z,4.22
2024-03-06T02:19:06.651Z,4.07
2024-03-06T02:21:34.729Z,3.87
2024-03-06T02:24:01.478Z,3.15
2024-03-06T02:26:28.013Z,3.35
2024-03-06T02:28:55.664Z,3.67
2024-03-06T02:31:22.882Z,3.67
2024-03-06T02:33:50.535Z,3.85
2024-03-06T02:36:17.407Z,3.88
2024-03-06T02:38:46.066Z,3.63
2024-03-06T02:41:13.050Z,4.47
2024-03-06T02:43:39.620Z,4.00
2024-03-06T02:46:07.994Z,2.60
2024-03-06T02:48:34.491Z,3.13
2024-03-06T02:51:00.988Z,3.35
2024-03-06T02:53:27.470Z,3.93
2024-03-06T02:55:55.339Z,3.25
2024-03-06T02:58:22.125Z,3.65
2024-03-06T03:00:48.626Z,4.00
2024-03-06T03:03:15.142Z,2.93
2024-03-06T03:05:41.652Z,4.50
2024-03-06T03:08:08.282Z,4.53
2024-03-06T03:10:34.820Z,4.32
2024-03-06T03:13:02.797Z,4.67
2024-03-06T03:15:29.300Z,3.95
2024-03-06T03:17:55.889Z,4.72
2024-03-06T03:20:22.558Z,4.33
2024-03-06T03:22:49.308Z,4.38
2024-03-06T03:25:15.963Z,4.15
2024-03-06T03:27:42.642Z,4.27
2024-03-06T03:30:11.577Z,4.10
2024-03-06T03:32:38.502Z,3.90
2024-03-06T03:35:05.994Z,4.15
2024-03-06T03:37:32.615Z,4.10
2024-03-06T03:39:59.401Z,4.53
2024-03-06T03:42:26.034Z,4.32
2024-03-06T03:44:52.740Z,5.65
2024-03-06T03:47:20.693Z,3.90
2024-03-06T03:49:56.926Z,4.43
2024-03-06T03:52:30.442Z,4.45
2024-03-06T03:54:57.008Z,4.57
2024-03-06T03:57:23.585Z,4.30
2024-03-06T03:59:50.085Z,4.50
2024-03-06T04:02:16.686Z,4.50
2024-03-06T04:04:44.650Z,5.00
2024-03-06T04:07:11.286Z,4.35
2024-03-06T04:09:37.770Z,4.40
2024-03-06T04:12:04.814Z,4.80
2024-03-06T04:14:31.386Z,4.80
2024-03-06T04:16:59.373Z,4.53
2024-03-06T04:19:25.933Z,5.35
2024-03-06T04:21:53.836Z,4.95
2024-03-06T04:24:20.366Z,4.55
2024-03-06T04:26:46.870Z,5.33
2024-03-06T04:29:13.447Z,4.72
2024-03-06T04:31:40.135Z,5.47
2024-03-06T04:34:06.619Z,4.93
2024-03-06T04:36:33.112Z,3.97
2024-03-06T04:39:03.333Z,4.63
2024-03-06T04:41:29.833Z,4.53
2024-03-06T04:43:56.299Z,5.43
2024-03-06T04:46:22.758Z,4.47
2024-03-06T04:48:49.239Z,4.80
2024-03-06T04:51:15.814Z,4.60
2024-03-06T04:53:42.307Z,5.30
2024-03-06T04:56:10.188Z,5.23
2024-03-06T04:58:36.792Z,5.25
2024-03-06T05:01:03.577Z,6.73
2024-03-06T05:58:31.099Z,7.40
2024-03-06T06:00:59.133Z,6.28
2024-03-06T06:03:26.903Z,7.15
2024-03-06T06:05:53.530Z,6.57
2024-03-06T06:08:20.178Z,6.95
2024-03-06T06:10:48.962Z,8.20
2024-03-06T06:13:15.476Z,8.10
2024-03-06T06:15:50.140Z,6.25
2024-03-06T06:18:17.972Z,7.03
2024-03-06T06:20:50.443Z,6.28
2024-03-06T06:23:16.995Z,6.95
2024-03-06T06:25:43.579Z,7.13
2024-03-06T06:28:10.074Z,7.37
2024-03-06T06:30:36.681Z,7.15
2024-03-06T06:33:03.398Z,7.13
2024-03-06T06:35:31.336Z,7.22
2024-03-06T06:37:57.969Z,7.63
2024-03-06T06:40:26.199Z,6.50
2024-03-06T06:42:54.386Z,6.60
2024-03-06T06:45:21.895Z,6.82
2024-03-06T06:50:27.734Z,6.80
2024-03-06T06:52:57.123Z,6.13
2024-03-06T07:06:13.095Z,6.47
2024-03-06T07:08:43.556Z,6.28
2024-03-06T07:11:10.172Z,6.43
2024-03-06T07:13:39.261Z,7.57
2024-03-06T07:38:31.042Z,6.72
2024-03-06T07:40:59.645Z,7.20
2024-03-06T07:43:34.348Z,7.30
2024-03-06T07:46:15.355Z,6.07
2024-03-06T07:48:50.113Z,6.25
2024-03-06T07:51:18.657Z,6.00
2024-03-06T07:53:45.385Z,6.40
2024-03-06T07:56:16.339Z,6.07
2024-03-06T07:59:07.385Z,6.10
2024-03-06T08:11:12.165Z,5.97
2024-03-06T08:13:46.569Z,5.28
2024-03-06T08:16:21.186Z,5.07
2024-03-06T08:18:53.719Z,5.78
2024-03-06T08:31:57.206Z,5.63
2024-03-06T08:34:24.773Z,5.38
2024-03-06T08:36:52.633Z,4.45
2024-03-06T08:39:19.267Z,4.93
2024-03-06T08:41:46.047Z,4.67
2024-03-06T08:44:23.026Z,5.80
2024-03-06T08:46:50.884Z,5.15
2024-03-06T09:00:42.479Z,4.68
2024-03-06T09:10:19.206Z,3.85
2024-03-06T09:12:46.068Z,4.30
2024-03-06T09:15:15.940Z,5.18
2024-03-06T09:17:45.557Z,4.30
2024-03-06T09:20:39.237Z,5.20
2024-03-06T09:23:13.235Z,5.32
2024-03-06T09:26:29.233Z,5.35
2024-03-06T09:29:47.339Z,5.43
2024-03-06T09:32:30.231Z,5.85
2024-03-06T09:34:59.548Z,5.82
2024-03-06T09:37:29.590Z,6.25
2024-03-06T09:39:56.373Z,8.27
2024-03-06T09:42:53.960Z,6.77
2024-03-06T09:45:29.203Z,7.03
2024-03-06T09:47:57.588Z,7.95
2024-03-06T09:50:31.688Z,8.77
2024-03-06T09:53:02.514Z,9.13
2024-03-06T09:55:40.167Z,7.57
2024-03-06T09:58:08.104Z,8.57
2024-03-06T10:00:53.637Z,8.95
2024-03-06T10:03:54.264Z,8.60
2024-03-06T10:06:51.803Z,10.15
2024-03-06T10:09:37.008Z,10.40
2024-03-06T10:12:19.336Z,9.40
2024-03-06T10:15:08.933Z,9.40
2024-03-06T10:17:35.786Z,9.43
2024-03-06T10:20:23.862Z,9.45
2024-03-06T10:22:58.857Z,9.05
2024-03-06T10:26:00.661Z,9.70
2024-03-06T10:29:40.231Z,8.50
2024-03-06T10:32:01.678Z,9.70
2024-03-06T10:35:15.576Z,9.97
2024-03-06T10:37:42.135Z,9.50
2024-03-06T10:40:51.893Z,10.27
2024-03-06T10:44:07.323Z,10.82
2024-03-06T10:46:54.098Z,10.70
2024-03-06T10:50:14.393Z,12.52
2024-03-06T10:52:53.292Z,13.57
2024-03-06T10:55:48.976Z,12.20
2024-03-06T11:05:40.602Z,15.20
2024-03-06T11:08:24.707Z,15.80
2024-03-06T11:10:57.356Z,15.70
2024-03-06T11:14:14.866Z,16.17
2024-03-06T11:16:58.775Z,15.18
2024-03-06T11:19:27.618Z,16.77
2024-03-06T11:22:05.561Z,15.70
2024-03-06T11:24:56.272Z,16.90
2024-03-06T11:28:06.649Z,17.55
2024-03-06T11:30:54.563Z,17.77
2024-03-06T11:50:09.974Z,21.65
2024-03-06T11:53:03.702Z,23.00
2024-03-06T11:55:46.406Z,22.75
2024-03-06T11:58:56.844Z,22.27
2024-03-06T12:04:37.409Z,24.33
2024-03-06T12:07:22.482Z,23.20
2024-03-06T12:09:53.023Z,24.38
2024-03-06T12:13:15.019Z,23.73
2024-03-06T12:16:42.399Z,26.90
2024-03-06T12:19:30.466Z,26.38
2024-03-06T12:21:56.712Z,26.27
2024-03-06T12:24:56.362Z,25.75
2024-03-06T12:27:25.732Z,25.50
2024-03-06T12:30:14.695Z,23.65
2024-03-06T12:33:08.293Z,24.42
2024-03-06T12:35:47.463Z,24.70
2024-03-06T12:38:17.438Z,25.08
2024-03-06T12:41:16.965Z,23.77
2024-03-06T12:44:29.275Z,23.80
2024-03-06T12:47:43.585Z,22.15
2024-03-06T12:50:38.110Z,21.95
2024-03-06T12:56:14.689Z,24.92
2024-03-06T12:59:36.695Z,22.45
2024-03-06T13:02:45.032Z,23.85
2024-03-06T13:05:22.143Z,23.65
2024-03-06T13:11:04.224Z,20.08
2024-03-06T13:13:38.828Z,20.13
2024-03-06T13:16:07.578Z,20.70
2024-03-06T13:18:59.914Z,19.05
2024-03-06T13:21:29.193Z,21.17
2024-03-06T13:24:28.485Z,20.25
2024-03-06T13:27:09.738Z,19.60
2024-03-06T13:29:36.418Z,19.50
2024-03-06T13:32:03.207Z,21.77
2024-03-06T13:34:37.450Z,20.55
2024-03-06T13:40:31.420Z,21.08
2024-03-06T13:59:02.620Z,21.20
2024-03-06T14:01:50.013Z,20.63
2024-03-06T14:04:18.512Z,21.40
2024-03-06T14:06:45.249Z,20.42
2024-03-06T14:09:13.543Z,20.15
2024-03-06T14:11:40.261Z,20.02
2024-03-06T14:14:16.946Z,20.95
2024-03-06T14:17:21.575Z,21.52
2024-03-06T14:19:48.416Z,21.60
2024-03-06T14:22:49.388Z,22.38
2024-03-06T14:35:10.743Z,20.85
2024-03-06T14:35:44.017Z,20.73
2024-03-06T14:44:57.156Z,21.77
2024-03-06T14:47:25.166Z,21.10
2024-03-06T14:50:26.971Z,21.50
2024-03-06T14:53:04.617Z,16.73
2024-03-06T14:55:35.221Z,21.00
2024-03-06T14:58:09.555Z,22.55
2024-03-06T15:00:36.170Z,21.13
2024-03-06T15:03:07.135Z,24.00
2024-03-06T15:05:33.937Z,23.80
2024-03-06T15:08:30.152Z,24.30
2024-03-06T15:11:01.314Z,24.95
2024-03-06T15:13:28.026Z,25.00
2024-03-06T15:16:23.994Z,24.13
2024-03-06T15:21:34.244Z,23.42
2024-03-06T15:24:06.156Z,24.67
2024-03-06T15:26:34.962Z,24.15
2024-03-06T15:29:11.738Z,23.88
2024-03-06T15:31:41.022Z,25.10
2024-03-06T15:34:08.949Z,25.73
2024-03-06T15:36:39.970Z,24.20
2024-03-06T15:39:08.022Z,23.55
2024-03-06T15:43:58.236Z,23.30
2024-03-06T15:44:21.837Z,23.55
2024-03-06T15:46:59.081Z,22.37
2024-03-06T15:49:49.259Z,22.73
2024-03-06T15:52:23.625Z,21.60
2024-03-06T15:54:53.324Z,21.27
2024-03-06T15:57:50.519Z,21.13
2024-03-06T16:00:29.103Z,22.20
2024-03-06T16:02:58.872Z,21.17
2024-03-06T16:05:25.646Z,21.85
2024-03-06T16:08:00.205Z,23.08
2024-03-06T16:10:32.939Z,23.17
2024-03-06T16:12:59.709Z,23.30
2024-03-06T16:15:28.448Z,25.23
2024-03-06T16:17:55.200Z,22.95
2024-03-06T16:20:22.190Z,24.20
2024-03-06T16:22:50.770Z,24.73
2024-03-06T16:25:17.621Z,24.55
2024-03-06T16:27:46.170Z,26.17
2024-03-06T16:30:13.722Z,25.52
2024-03-06T16:32:49.392Z,26.02
2024-03-06T16:38:05.156Z,27.38
2024-03-06T16:38:30.094Z,25.75
2024-03-06T16:40:31.696Z,28.57
2024-03-06T16:42:59.544Z,28.08
2024-03-06T16:45:26.111Z,27.98
2024-03-06T16:47:52.944Z,28.53
2024-03-06T16:50:21.332Z,28.83
2024-03-06T16:52:50.821Z,26.50
2024-03-06T16:55:17.513Z,29.15
2024-03-06T16:57:44.048Z,27.53
2024-03-06T17:00:13.756Z,29.97
2024-03-06T17:02:40.652Z,29.73
2024-03-06T17:05:09.703Z,35.03
2024-03-06T17:07:36.326Z,30.33
2024-03-06T17:10:02.863Z,30.60
2024-03-06T17:12:29.404Z,30.90
2024-03-06T17:14:58.532Z,31.47
2024-03-06T17:17:26.570Z,32.28
2024-03-06T17:19:53.104Z,33.85
2024-03-06T17:22:22.284Z,34.78
2024-03-06T17:24:48.811Z,32.72
2024-03-06T17:27:15.313Z,34.13
2024-03-06T17:29:43.658Z,35.73
2024-03-06T17:32:12.206Z,35.33
2024-03-06T17:34:40.037Z,37.47
2024-03-06T17:37:06.551Z,33.10
2024-03-06T17:39:33.204Z,37.67
2024-03-06T17:42:04.516Z,37.85
2024-03-06T17:44:33.253Z,38.25
2024-03-06T17:47:00.229Z,38.70
2024-03-06T17:49:26.836Z,37.33
2024-03-06T17:51:54.668Z,37.20
2024-03-06T17:54:21.204Z,36.25
2024-03-06T17:56:47.800Z,37.83
2024-03-06T17:59:14.439Z,35.03
2024-03-06T18:01:41.118Z,38.97
2024-03-06T18:04:08.326Z,38.00
2024-03-06T18:06:34.934Z,36.95
2024-03-06T18:09:03.331Z,36.13
2024-03-06T18:11:29.935Z,37.05
2024-03-06T18:13:56.455Z,35.93
2024-03-06T18:16:23.014Z,38.73
2024-03-06T18:18:49.633Z,35.73
2024-03-06T18:21:16.186Z,37.50
2024-03-06T18:23:42.772Z,39.63
2024-03-06T18:26:10.683Z,35.65
2024-03-06T18:28:37.197Z,36.33
2024-03-06T18:31:05.191Z,38.15
2024-03-06T18:33:32.105Z,37.42
2024-03-06T18:35:58.860Z,37.83
2024-03-06T18:38:25.454Z,37.13
2024-03-06T18:40:52.030Z,41.77
2024-03-06T18:43:19.890Z,41.28
2024-03-06T18:45:46.450Z,40.38
2024-03-06T18:48:13.163Z,40.50
2024-03-06T18:50:39.828Z,38.58
2024-03-06T18:53:06.482Z,40.20
2024-03-06T18:55:33.088Z,41.13
2024-03-06T18:57:59.624Z,37.87
2024-03-06T19:00:27.531Z,42.30
2024-03-06T19:02:54.109Z,38.40
2024-03-06T19:05:20.785Z,36.90
2024-03-06T19:07:47.334Z,38.25
2024-03-06T19:10:13.951Z,38.93
2024-03-06T19:12:40.509Z,38.08
2024-03-06T19:15:07.998Z,41.53
2024-03-06T19:20:03.487Z,37.15
2024-03-06T19:22:29.989Z,40.38
2024-03-06T19:24:56.578Z,42.83
2024-03-06T19:27:23.118Z,45.60
2024-03-06T19:29:49.713Z,41.13
2024-03-06T19:32:16.384Z,42.03
2024-03-06T19:34:44.255Z,40.80
2024-03-06T19:37:10.840Z,45.40
2024-03-06T19:39:37.341Z,46.80
2024-03-06T19:42:04.533Z,43.10
2024-03-06T19:44:31.050Z,43.75
2024-03-06T19:46:57.755Z,42.58
2024-03-06T19:49:24.243Z,42.22
2024-03-06T19:51:52.244Z,41.58
2024-03-06T19:54:18.707Z,42.88
2024-03-06T19:56:45.307Z,43.28
2024-03-06T19:59:11.939Z,41.73
2024-03-06T20:01:38.456Z,42.40
2024-03-06T20:04:05.204Z,44.80
2024-03-06T20:06:31.945Z,44.63
2024-03-06T20:09:00.072Z,43.95
2024-03-06T20:11:28.193Z,42.88
2024-03-06T20:13:54.893Z,42.70
2024-03-06T20:16:22.089Z,42.47
2024-03-06T20:18:48.771Z,40.08
2024-03-06T20:21:15.337Z,40.73
2024-03-06T20:23:41.857Z,41.57
2024-03-06T20:26:09.897Z,39.20
2024-03-06T20:28:36.438Z,40.65
2024-03-06T20:31:03.124Z,39.47
2024-03-06T20:33:29.802Z,41.40
2024-03-06T20:35:56.394Z,44.20
2024-03-06T20:38:25.559Z,42.75
2024-03-06T20:40:52.609Z,41.33
2024-03-06T20:43:20.583Z,42.20
2024-03-06T20:45:47.142Z,40.75
2024-03-06T20:48:13.908Z,41.28
2024-03-06T20:50:41.170Z,40.22
2024-03-06T20:53:07.774Z,40.80
2024-03-06T20:55:34.260Z,40.77
2024-03-06T20:58:01.970Z,39.43
2024-03-06T21:00:29.966Z,39.97
2024-03-06T21:02:56.548Z,43.35
2024-03-06T21:05:23.371Z,41.50
2024-03-06T21:07:50.004Z,41.67
2024-03-06T21:10:16.719Z,40.97
2024-03-06T21:12:43.482Z,41.97
2024-03-06T21:15:10.259Z,40.17
2024-03-06T21:17:38.236Z,42.55
2024-03-06T21:20:05.889Z,41.15
2024-03-06T21:22:32.385Z,42.42
2024-03-06T21:24:58.882Z,43.88
2024-03-06T21:27:25.378Z,41.93
2024-03-06T21:29:51.928Z,42.53
2024-03-06T21:32:18.466Z,41.07
2024-03-06T21:34:46.354Z,42.70
2024-03-06T21:37:12.926Z,39.08
2024-03-06T21:39:39.460Z,41.87
2024-03-06T21:42:06.003Z,41.13
2024-03-06T21:44:32.519Z,40.43
2024-03-06T21:46:59.077Z,42.27
2024-03-06T21:49:25.627Z,41.03
2024-03-06T21:51:53.433Z,38.03
2024-03-06T21:54:19.933Z,41.13
2024-03-06T21:56:46.590Z,40.10
2024-03-06T21:59:13.317Z,41.00
2024-03-06T22:01:39.945Z,41.08
2024-03-06T22:04:06.578Z,40.63
2024-03-06T22:06:33.086Z,40.93
2024-03-06T22:09:01.063Z,31.08
2024-03-06T22:11:27.614Z,43.25
2024-03-06T22:13:54.099Z,43.10
2024-03-06T22:16:20.663Z,40.55
2024-03-06T22:18:47.186Z,41.50
2024-03-06T22:21:13.801Z,40.17
2024-03-06T22:23:41.201Z,40.50
2024-03-06T22:28:35.548Z,38.97
2024-03-06T22:31:02.028Z,39.93
2024-03-06T22:33:28.880Z,40.47
2024-03-06T22:35:55.807Z,38.13
2024-03-06T22:38:22.499Z,42.30
2024-03-06T22:40:49.014Z,41.25
2024-03-06T22:43:16.849Z,41.03
2024-03-06T22:45:43.360Z,44.20
2024-03-06T22:48:10.095Z,41.72
2024-03-06T22:50:36.690Z,40.72
2024-03-06T22:53:03.445Z,42.80
2024-03-06T22:55:29.928Z,43.95
2024-03-06T22:57:56.425Z,44.77
2024-03-06T23:00:24.268Z,40.83
2024-03-06T23:02:51.181Z,42.22
2024-03-06T23:05:17.829Z,39.90
2024-03-06T23:07:44.374Z,39.53
2024-03-06T23:10:10.880Z,41.17
2024-03-06T23:12:37.369Z,39.33
2024-03-06T23:15:04.424Z,41.80
2024-03-06T23:17:32.359Z,41.80
2024-03-06T23:19:59.336Z,37.20
2024-03-06T23:22:25.908Z,37.58
2024-03-06T23:24:52.435Z,37.07
2024-03-06T23:27:18.947Z,35.95
2024-03-06T23:29:45.512Z,38.90
2024-03-06T23:32:12.026Z,39.50
2024-03-06T23:34:39.911Z,37.70
2024-03-06T23:37:06.406Z,37.70
2024-03-06T23:39:33.169Z,38.70
2024-03-06T23:41:59.686Z,38.92
2024-03-06T23:44:26.182Z,39.87
2024-03-06T23:46:52.685Z,27.77
2024-03-06T23:49:19.583Z,37.53
2024-03-06T23:51:47.472Z,36.90
2024-03-06T23:54:14.029Z,37.10
2024-03-06T23:56:40.567Z,40.07
2024-03-06T23:59:07.402Z,35.97
